Time;durP1;ratioP1;P1;durP2;ratioP2;P2;SDS_P1;SDS_P2;PMS_P1;PMS_P2;Temp;Humidity;BMP_temperature;BMP_pressure;BME280_temperature;BME280_humidity;BME280_pressure;Samples;Min_cycle;Max_cycle;Signal;HPM_P1;HPM_P2
2022/06/26 00:01:00;;;;;;;7.53;4.40;;;12.30;99.90;;;;;;5063471;28;20025;-79
2022/06/26 00:03:28;;;;;;;6.20;4.55;;;12.40;99.90;;;;;;5031344;28;20520;-76
2022/06/26 00:05:56;;;;;;;7.15;4.32;;;12.60;99.90;;;;;;5031263;28;20025;-77
2022/06/26 00:08:25;;;;;;;6.47;4.55;;;12.70;99.90;;;;;;5032947;28;20378;-76
2022/06/26 00:10:53;;;;;;;4.32;3.20;;;12.80;99.90;;;;;;5033315;28;20112;-77
2022/06/26 00:13:21;;;;;;;5.85;3.25;;;13.00;99.90;;;;;;5033133;28;20021;-78
2022/06/26 00:15:48;;;;;;;4.60;3.00;;;13.10;99.90;;;;;;5033065;28;20017;-79
2022/06/26 00:18:16;;;;;;;5.22;3.47;;;13.40;99.90;;;;;;5033393;28;20512;-77
2022/06/26 00:20:43;;;;;;;5.47;3.10;;;13.60;99.90;;;;;;5033802;28;20229;-79
2022/06/26 00:23:10;;;;;;;6.50;4.20;;;13.70;99.90;;;;;;5033025;28;20033;-77
2022/06/26 00:25:38;;;;;;;5.43;3.40;;;13.90;99.90;;;;;;5032708;28;20533;-76
2022/06/26 00:28:05;;;;;;;4.78;2.83;;;14.00;99.90;;;;;;5030132;28;20397;-78
2022/06/26 00:30:32;;;;;;;5.05;2.88;;;14.20;99.90;;;;;;5046843;28;20033;-78
2022/06/26 00:33:00;;;;;;;4.85;2.72;;;14.30;99.90;;;;;;5029425;28;20077;-80
2022/06/26 00:35:29;;;;;;;6.32;3.35;;;14.40;99.90;;;;;;5045283;28;20028;-77
2022/06/26 00:37:56;;;;;;;6.57;2.97;;;14.50;99.90;;;;;;5030866;28;20025;-78
2022/06/26 00:40:25;;;;;;;3.20;2.10;;;14.70;99.90;;;;;;5030897;28;20418;-78
2022/06/26 00:42:52;;;;;;;3.72;2.58;;;14.90;99.90;;;;;;5030664;28;20112;-78
2022/06/26 00:45:20;;;;;;;5.28;2.88;;;14.90;99.90;;;;;;5031828;28;20018;-78
2022/06/26 00:47:47;;;;;;;4.45;2.85;;;15.00;99.90;;;;;;5030896;28;20033;-78
2022/06/26 00:50:14;;;;;;;5.28;2.50;;;15.00;99.90;;;;;;5030200;28;20152;-78
2022/06/26 00:52:42;;;;;;;4.25;2.63;;;15.10;99.90;;;;;;5046049;28;20033;-78
2022/06/26 00:55:10;;;;;;;5.05;2.50;;;15.10;99.90;;;;;;5030333;28;20057;-78
2022/06/26 00:57:38;;;;;;;5.63;2.65;;;15.10;99.90;;;;;;5031022;28;20029;-77
2022/06/26 01:00:08;;;;;;;4.03;2.83;;;15.30;99.90;;;;;;5031690;28;20026;-76
2022/06/26 01:02:35;;;;;;;5.70;3.15;;;15.30;99.90;;;;;;5031558;28;20030;-77
2022/06/26 01:05:03;;;;;;;4.55;2.50;;;15.40;99.90;;;;;;5030981;28;20021;-78
2022/06/26 01:07:31;;;;;;;4.90;2.58;;;15.50;99.90;;;;;;5030463;28;20508;-78
2022/06/26 01:09:59;;;;;;;5.25;3.00;;;15.60;99.90;;;;;;5032309;28;20029;-76
2022/06/26 01:12:27;;;;;;;4.50;2.53;;;15.60;99.90;;;;;;5029382;28;20030;-77
2022/06/26 01:14:54;;;;;;;4.13;3.00;;;15.70;99.90;;;;;;5030575;28;20020;-75
2022/06/26 01:17:21;;;;;;;4.25;2.70;;;15.80;99.90;;;;;;5031502;28;20021;-78
2022/06/26 01:19:49;;;;;;;4.85;2.53;;;15.90;99.90;;;;;;5028911;28;20059;-78
2022/06/26 01:22:16;;;;;;;5.97;3.33;;;15.90;99.90;;;;;;5032268;28;20112;-78
2022/06/26 01:24:43;;;;;;;5.13;2.53;;;16.00;99.90;;;;;;5029397;28;20017;-76
2022/06/26 01:27:11;;;;;;;5.90;2.97;;;16.10;99.90;;;;;;5031220;28;20544;-76
2022/06/26 01:29:38;;;;;;;7.53;3.28;;;16.20;99.90;;;;;;5046065;28;20445;-77
2022/06/26 01:32:06;;;;;;;6.03;3.00;;;16.30;99.90;;;;;;5031129;28;20481;-76
2022/06/26 01:34:33;;;;;;;6.07;2.63;;;16.40;99.90;;;;;;5031231;28;20382;-79
2022/06/26 01:37:02;;;;;;;3.53;2.70;;;16.50;99.90;;;;;;5030484;28;20029;-77
2022/06/26 01:39:29;;;;;;;6.43;2.60;;;16.60;99.90;;;;;;5033802;28;20080;-75
2022/06/26 01:41:56;;;;;;;4.93;2.90;;;16.70;99.90;;;;;;5049890;28;20379;-78
2022/06/26 01:44:24;;;;;;;5.72;2.97;;;16.80;99.80;;;;;;5035947;28;20025;-78
2022/06/26 01:46:51;;;;;;;6.60;3.35;;;16.90;99.60;;;;;;5036970;28;20030;-80
2022/06/26 01:49:23;;;;;;;3.15;2.53;;;17.00;99.20;;;;;;5034672;28;20029;-81
2022/06/26 01:51:50;;;;;;;4.10;2.70;;;17.00;99.40;;;;;;5033591;28;20044;-79
2022/06/26 01:54:18;;;;;;;3.88;2.63;;;17.00;99.00;;;;;;5033040;28;20079;-78
2022/06/26 01:56:46;;;;;;;4.88;2.60;;;17.10;98.80;;;;;;5034553;28;20029;-78
2022/06/26 01:59:13;;;;;;;5.95;3.08;;;17.10;98.80;;;;;;5034541;28;20107;-78
2022/06/26 02:01:40;;;;;;;5.07;3.22;;;17.20;98.60;;;;;;5033485;28;20025;-78
2022/06/26 02:04:08;;;;;;;5.55;3.22;;;17.30;98.60;;;;;;5034942;28;20070;-77
2022/06/26 02:06:35;;;;;;;6.57;3.30;;;17.40;98.50;;;;;;5035214;28;20097;-78
2022/06/26 02:09:04;;;;;;;6.80;3.00;;;17.50;98.50;;;;;;5034169;28;20341;-78
2022/06/26 02:14:16;;;;;;;4.35;2.90;;;17.70;98.30;;;;;;5035633;28;20040;-79
2022/06/26 02:16:46;;;;;;;4.45;2.50;;;17.60;98.10;;;;;;5035335;28;20103;-79
2022/06/26 02:19:13;;;;;;;3.33;2.50;;;17.60;98.10;;;;;;5035575;28;20429;-78
2022/06/26 02:21:41;;;;;;;6.10;3.83;;;17.70;98.10;;;;;;5034484;28;20389;-78
2022/06/26 02:24:08;;;;;;;5.32;3.00;;;17.70;98.00;;;;;;5050065;28;20031;-78
2022/06/26 02:26:36;;;;;;;6.38;3.30;;;17.80;97.90;;;;;;5050206;28;20502;-79
2022/06/26 02:29:03;;;;;;;5.43;2.67;;;17.80;97.60;;;;;;5034632;28;20052;-77
2022/06/26 02:31:30;;;;;;;6.13;2.90;;;17.90;97.40;;;;;;5034806;28;20406;-78
2022/06/26 02:33:58;;;;;;;6.25;2.80;;;18.00;97.60;;;;;;5034723;28;20072;-78
2022/06/26 02:36:25;;;;;;;7.15;3.10;;;18.10;97.30;;;;;;5035603;28;20040;-77
2022/06/26 02:38:52;;;;;;;5.07;2.97;;;18.10;96.70;;;;;;5034774;28;20046;-78
2022/06/26 02:41:21;;;;;;;9.65;4.03;;;18.10;96.90;;;;;;5034600;28;20029;-78
2022/06/26 02:43:48;;;;;;;6.70;4.28;;;18.20;97.10;;;;;;5050310;28;20026;-78
2022/06/26 02:46:16;;;;;;;5.13;3.50;;;18.30;97.10;;;;;;5034757;28;20021;-77
2022/06/26 02:48:44;;;;;;;4.53;3.60;;;18.40;96.60;;;;;;5034391;28;20022;-77
2022/06/26 02:51:11;;;;;;;6.65;4.32;;;18.40;96.40;;;;;;5033069;28;20032;-77
2022/06/26 02:53:39;;;;;;;8.13;4.47;;;18.50;96.50;;;;;;5034219;28;20459;-77
2022/06/26 02:56:09;;;;;;;5.85;4.63;;;18.60;96.30;;;;;;5034621;28;20030;-75
2022/06/26 02:58:36;;;;;;;7.28;4.53;;;18.60;96.30;;;;;;5034700;28;20032;-78
2022/06/26 03:01:04;;;;;;;8.55;5.75;;;18.70;96.30;;;;;;5034611;28;20048;-75
2022/06/26 03:03:32;;;;;;;7.65;5.78;;;18.80;96.10;;;;;;5034841;28;20022;-76
2022/06/26 03:06:00;;;;;;;7.35;4.50;;;19.00;95.90;;;;;;5034686;28;20022;-76
2022/06/26 03:08:27;;;;;;;5.75;3.53;;;19.20;95.50;;;;;;5034224;28;20089;-77
2022/06/26 03:10:54;;;;;;;6.07;3.65;;;19.40;94.80;;;;;;5034831;28;20018;-77
2022/06/26 03:13:22;;;;;;;5.80;3.22;;;19.70;94.10;;;;;;5033115;28;20048;-77
2022/06/26 03:15:49;;;;;;;5.65;2.70;;;20.00;93.60;;;;;;5034351;28;20457;-76
2022/06/26 03:18:16;;;;;;;4.35;2.47;;;20.20;92.90;;;;;;5033035;28;20129;-77
2022/06/26 03:20:44;;;;;;;4.82;2.00;;;20.40;91.90;;;;;;5034225;28;20371;-77
2022/06/26 03:23:12;;;;;;;3.88;2.13;;;20.70;91.00;;;;;;5033108;28;20360;-77
2022/06/26 03:25:39;;;;;;;2.10;1.23;;;21.00;90.70;;;;;;5033911;28;20033;-78
2022/06/26 03:28:07;;;;;;;5.40;2.40;;;21.40;89.10;;;;;;5036890;28;20025;-78
2022/06/26 03:30:35;;;;;;;5.60;2.58;;;21.70;88.20;;;;;;5033763;28;20026;-77
2022/06/26 03:33:02;;;;;;;3.10;2.22;;;21.90;88.00;;;;;;5033118;28;20096;-78
2022/06/26 03:35:29;;;;;;;3.45;1.73;;;22.30;87.30;;;;;;5034433;28;20486;-77
2022/06/26 03:37:57;;;;;;;2.47;1.52;;;22.80;84.90;;;;;;5033892;28;20041;-79
2022/06/26 03:40:24;;;;;;;8.35;5.07;;;23.30;81.20;;;;;;5050230;28;20022;-80
2022/06/26 03:42:52;;;;;;;3.72;1.90;;;23.70;80.00;;;;;;5049138;28;20038;-79
2022/06/26 03:45:19;;;;;;;3.08;1.90;;;24.00;79.10;;;;;;5033693;28;20018;-76
2022/06/26 03:47:46;;;;;;;3.08;1.95;;;24.20;78.80;;;;;;5034049;28;20071;-76
2022/06/26 03:50:14;;;;;;;3.58;1.52;;;24.20;77.60;;;;;;5033330;28;20025;-78
2022/06/26 03:52:41;;;;;;;2.22;1.23;;;24.10;77.10;;;;;;5032300;28;20129;-79
2022/06/26 03:55:09;;;;;;;3.28;1.52;;;24.00;77.30;;;;;;5048458;28;20049;-76
2022/06/26 03:57:36;;;;;;;2.78;1.88;;;24.00;76.10;;;;;;5048779;28;20033;-75
2022/06/26 04:00:04;;;;;;;2.63;1.33;;;23.80;76.10;;;;;;5033143;28;20055;-76
2022/06/26 04:02:32;;;;;;;4.28;1.83;;;23.70;76.60;;;;;;5032049;28;20022;-75
2022/06/26 04:04:59;;;;;;;4.10;2.05;;;23.70;76.10;;;;;;5033012;28;20462;-76
2022/06/26 04:07:27;;;;;;;4.30;2.58;;;23.60;77.30;;;;;;5032982;28;20022;-78
2022/06/26 04:09:54;;;;;;;4.75;1.90;;;23.40;78.70;;;;;;5031855;28;20033;-75
2022/06/26 04:12:21;;;;;;;4.38;1.95;;;23.00;77.90;;;;;;5033294;28;20029;-78
2022/06/26 04:14:48;;;;;;;4.40;1.77;;;22.50;77.70;;;;;;5033215;28;20029;-76
2022/06/26 04:17:16;;;;;;;7.25;2.10;;;22.20;79.30;;;;;;5032895;28;20116;-76
2022/06/26 04:19:43;;;;;;;3.95;2.17;;;21.90;80.40;;;;;;5032348;28;20021;-76
2022/06/26 04:22:10;;;;;;;3.33;1.85;;;21.60;80.50;;;;;;5032653;28;20036;-79
2022/06/26 04:24:38;;;;;;;3.78;2.28;;;21.40;80.70;;;;;;5033579;28;20025;-76
2022/06/26 04:27:06;;;;;;;4.68;2.00;;;21.20;81.10;;;;;;5032986;28;20025;-79
2022/06/26 04:29:33;;;;;;;4.57;1.83;;;21.00;81.90;;;;;;5032877;28;20026;-78
2022/06/26 04:32:00;;;;;;;3.53;1.48;;;20.90;81.80;;;;;;5032477;28;20116;-79
2022/06/26 04:34:27;;;;;;;4.05;1.80;;;20.60;81.80;;;;;;5031307;28;20018;-75
2022/06/26 04:36:55;;;;;;;4.53;2.35;;;20.50;82.80;;;;;;5031950;28;20036;-76
2022/06/26 04:39:22;;;;;;;4.20;1.52;;;20.50;82.40;;;;;;5032950;28;20028;-77
2022/06/26 04:41:50;;;;;;;4.53;1.65;;;20.40;81.90;;;;;;5033278;28;20063;-77
2022/06/26 04:44:19;;;;;;;3.85;1.80;;;20.30;82.80;;;;;;5033278;28;20116;-78
2022/06/26 04:46:46;;;;;;;2.53;1.67;;;20.30;81.00;;;;;;5047817;28;20022;-77
2022/06/26 04:49:14;;;;;;;3.22;1.85;;;20.20;82.00;;;;;;5032469;28;20022;-77
2022/06/26 04:51:41;;;;;;;2.53;1.90;;;20.20;81.90;;;;;;5032558;28;20116;-78
2022/06/26 04:54:09;;;;;;;3.70;1.98;;;20.10;82.90;;;;;;5047485;28;20037;-78
2022/06/26 04:56:38;;;;;;;3.10;2.28;;;20.10;82.90;;;;;;5032497;28;20022;-76
2022/06/26 04:59:06;;;;;;;3.47;1.90;;;20.00;83.10;;;;;;5032373;28;20040;-76
2022/06/26 05:01:35;;;;;;;4.25;1.63;;;19.90;83.70;;;;;;5032611;28;20026;-79
2022/06/26 05:04:02;;;;;;;4.15;2.17;;;19.90;84.30;;;;;;5032146;28;20029;-77
2022/06/26 05:06:30;;;;;;;2.75;1.42;;;19.90;84.50;;;;;;5032098;28;20017;-75
2022/06/26 05:08:57;;;;;;;4.03;2.10;;;19.80;83.90;;;;;;5032109;28;20105;-75
2022/06/26 05:11:24;;;;;;;2.50;1.35;;;19.80;84.20;;;;;;5032347;28;20083;-81
2022/06/26 05:13:52;;;;;;;3.78;1.90;;;19.70;84.20;;;;;;5031800;28;20189;-75
2022/06/26 05:16:19;;;;;;;5.43;2.17;;;19.70;84.10;;;;;;5046845;28;20477;-78
2022/06/26 05:18:46;;;;;;;4.68;2.03;;;19.70;84.40;;;;;;5032099;28;20068;-75
2022/06/26 05:21:14;;;;;;;2.30;1.50;;;19.50;84.40;;;;;;5032459;28;20475;-76
2022/06/26 05:23:41;;;;;;;4.30;1.50;;;19.50;84.20;;;;;;5033601;28;20026;-76
2022/06/26 05:26:09;;;;;;;2.60;1.38;;;19.40;84.00;;;;;;5031131;28;20029;-78
2022/06/26 05:28:36;;;;;;;4.43;1.63;;;19.40;84.30;;;;;;5032800;28;20021;-76
2022/06/26 05:31:03;;;;;;;2.47;1.38;;;19.40;84.70;;;;;;5048574;28;20022;-76
2022/06/26 05:33:31;;;;;;;4.85;1.65;;;19.40;84.50;;;;;;5030882;28;20082;-75
2022/06/26 05:35:58;;;;;;;2.65;1.50;;;19.50;84.20;;;;;;5030580;28;20026;-75
2022/06/26 05:38:25;;;;;;;2.47;1.48;;;19.50;83.90;;;;;;5049686;28;20029;-77
2022/06/26 05:40:53;;;;;;;2.92;1.60;;;19.50;83.60;;;;;;5034204;28;20022;-76
2022/06/26 05:43:20;;;;;;;4.00;2.50;;;19.40;84.10;;;;;;5036888;28;20022;-75
2022/06/26 05:45:48;;;;;;;3.65;1.98;;;19.40;84.80;;;;;;5036142;28;20017;-77
2022/06/26 05:48:16;;;;;;;2.72;0.93;;;19.40;84.50;;;;;;5036778;28;20022;-75
2022/06/26 05:50:44;;;;;;;2.40;0.90;;;19.30;83.50;;;;;;5035405;28;20025;-77
2022/06/26 05:53:13;;;;;;;2.67;1.63;;;19.30;84.10;;;;;;5041216;28;20113;-77
2022/06/26 05:55:42;;;;;;;4.10;1.92;;;19.30;84.00;;;;;;5044357;28;20046;-76
2022/06/26 05:58:10;;;;;;;4.03;1.30;;;19.40;83.40;;;;;;5048378;28;20092;-79
2022/06/26 06:00:38;;;;;;;3.55;1.40;;;19.20;83.90;;;;;;5047576;28;20026;-75
2022/06/26 06:03:07;;;;;;;4.68;1.80;;;19.20;83.70;;;;;;5047677;28;20034;-78
2022/06/26 06:05:35;;;;;;;3.45;2.00;;;19.10;84.30;;;;;;5062144;28;20021;-78
2022/06/26 06:08:03;;;;;;;3.22;1.83;;;19.00;84.20;;;;;;5038750;28;20026;-77
2022/06/26 06:10:30;;;;;;;4.18;1.95;;;19.00;85.10;;;;;;5033743;28;20453;-77
2022/06/26 06:12:57;;;;;;;5.22;2.92;;;18.80;85.80;;;;;;5033594;28;20397;-76
2022/06/26 06:15:25;;;;;;;3.55;1.88;;;18.80;86.40;;;;;;5034006;28;20054;-78
2022/06/26 06:17:52;;;;;;;4.18;2.10;;;18.70;87.50;;;;;;5033377;28;20025;-78
2022/06/26 06:20:23;;;;;;;3.15;2.05;;;18.60;88.80;;;;;;5032233;28;20029;-77
2022/06/26 06:23:00;;;;;;;3.88;2.40;;;18.50;89.60;;;;;;5031079;28;20308;-77
2022/06/26 06:25:28;;;;;;;5.00;2.78;;;18.40;90.40;;;;;;5035196;28;20081;-76
2022/06/26 06:27:55;;;;;;;14.02;3.53;;;18.10;91.20;;;;;;5037507;28;20025;-79
2022/06/26 06:30:22;;;;;;;11.77;3.63;;;18.00;91.70;;;;;;5036384;28;20390;-76
2022/06/26 06:32:50;;;;;;;9.55;3.50;;;17.80;92.10;;;;;;5036765;28;20041;-77
2022/06/26 06:35:18;;;;;;;6.82;3.33;;;17.70;92.60;;;;;;5035745;28;20010;-76
2022/06/26 06:37:45;;;;;;;4.35;2.53;;;17.50;92.60;;;;;;5034222;28;20075;-77
2022/06/26 06:40:14;;;;;;;7.60;2.20;;;17.30;93.00;;;;;;5035255;28;20021;-78
2022/06/26 06:42:43;;;;;;;4.88;2.38;;;17.20;93.20;;;;;;5035621;28;20036;-78
2022/06/26 06:45:12;;;;;;;5.60;3.40;;;17.00;93.50;;;;;;5050537;28;20435;-77
2022/06/26 06:47:39;;;;;;;5.75;3.17;;;16.90;94.10;;;;;;5037733;28;20037;-76
2022/06/26 06:50:08;;;;;;;6.68;3.05;;;16.70;94.20;;;;;;5038738;28;20017;-77
2022/06/26 06:52:35;;;;;;;6.82;3.47;;;16.60;94.60;;;;;;5038545;28;20128;-77
2022/06/26 06:55:04;;;;;;;6.00;3.20;;;16.50;94.90;;;;;;5037654;28;20038;-79
2022/06/26 06:57:31;;;;;;;6.82;3.33;;;16.30;95.20;;;;;;5053182;28;20087;-77
2022/06/26 06:59:59;;;;;;;6.32;2.80;;;16.20;95.60;;;;;;5037740;28;20025;-78
2022/06/26 07:02:26;;;;;;;4.80;2.95;;;16.00;95.90;;;;;;5036565;28;20032;-76
2022/06/26 07:04:58;;;;;;;10.07;3.40;;;15.80;96.20;;;;;;5037359;28;20482;-79
2022/06/26 07:07:28;;;;;;;7.00;3.28;;;15.70;96.50;;;;;;5053126;28;20029;-78
2022/06/26 07:09:56;;;;;;;5.50;3.17;;;15.60;96.80;;;;;;5050577;28;20482;-79
2022/06/26 07:12:23;;;;;;;6.95;3.28;;;15.50;96.90;;;;;;5034845;28;20041;-80
2022/06/26 07:14:50;;;;;;;7.13;3.17;;;15.30;97.20;;;;;;5034695;28;20486;-78
2022/06/26 07:17:18;;;;;;;7.10;3.08;;;15.30;97.40;;;;;;5034585;28;20111;-76
2022/06/26 07:19:46;;;;;;;6.60;3.63;;;15.20;97.70;;;;;;5034476;28;20021;-77
2022/06/26 07:22:13;;;;;;;6.05;3.63;;;15.10;97.90;;;;;;5035025;28;20497;-81
2022/06/26 07:24:41;;;;;;;6.65;3.58;;;15.00;97.90;;;;;;5036217;28;20528;-77
2022/06/26 07:27:08;;;;;;;5.93;3.63;;;14.90;98.30;;;;;;5035596;28;20193;-80
2022/06/26 07:29:37;;;;;;;6.97;4.22;;;14.90;98.50;;;;;;5036642;28;20100;-77
2022/06/26 07:32:05;;;;;;;7.88;4.80;;;14.80;98.60;;;;;;5037499;28;20041;-78
2022/06/26 07:34:32;;;;;;;6.30;4.47;;;14.80;98.90;;;;;;5035927;28;20021;-80
2022/06/26 07:37:01;;;;;;;7.15;4.75;;;14.70;99.00;;;;;;5035591;28;20021;-81
2022/06/26 07:39:32;;;;;;;10.18;5.28;;;14.70;99.20;;;;;;5038267;28;20045;-81
2022/06/26 07:41:59;;;;;;;8.73;5.50;;;14.70;99.20;;;;;;5037208;28;20375;-82
2022/06/26 07:44:26;;;;;;;8.73;5.40;;;14.60;99.20;;;;;;5053208;28;20056;-78
2022/06/26 07:46:54;;;;;;;7.70;5.28;;;14.50;99.40;;;;;;5036576;28;20036;-79
2022/06/26 07:49:21;;;;;;;9.30;6.05;;;14.50;99.50;;;;;;5034482;28;20028;-78
2022/06/26 07:51:49;;;;;;;10.13;6.05;;;14.50;99.60;;;;;;5033968;28;20031;-77
2022/06/26 07:54:17;;;;;;;9.65;6.63;;;14.40;99.90;;;;;;5033263;28;20053;-78
2022/06/26 07:56:44;;;;;;;11.60;6.95;;;14.40;99.90;;;;;;5034098;28;20549;-79
2022/06/26 07:59:11;;;;;;;10.65;7.03;;;14.40;99.90;;;;;;5034222;28;20381;-81
2022/06/26 08:01:42;;;;;;;10.13;6.18;;;14.40;99.90;;;;;;5034254;28;20025;-77
2022/06/26 08:04:10;;;;;;;11.20;5.75;;;14.30;99.90;;;;;;5033669;28;20135;-79
2022/06/26 08:06:37;;;;;;;11.20;6.38;;;14.30;99.90;;;;;;5034053;28;20022;-76
2022/06/26 08:09:05;;;;;;;11.80;5.40;;;14.30;99.90;;;;;;5037590;28;20029;-81
2022/06/26 08:11:32;;;;;;;9.32;7.43;;;14.30;99.90;;;;;;5035740;28;20028;-78
2022/06/26 08:14:00;;;;;;;13.55;7.07;;;14.20;99.90;;;;;;5036377;28;20421;-77
2022/06/26 08:16:28;;;;;;;11.55;7.00;;;14.30;99.90;;;;;;5030469;28;20080;-78
2022/06/26 08:18:56;;;;;;;14.15;9.65;;;14.20;99.90;;;;;;5028916;28;20037;-76
2022/06/26 08:24:09;;;;;;;15.88;8.57;;;14.20;99.90;;;;;;5030615;28;20044;-78
2022/06/26 08:26:36;;;;;;;10.95;8.05;;;14.20;99.90;;;;;;5030878;28;20496;-83
2022/06/26 08:29:07;;;;;;;14.80;8.43;;;14.10;99.90;;;;;;5035963;28;20037;-82
2022/06/26 08:31:36;;;;;;;12.95;8.05;;;14.10;99.90;;;;;;5035163;28;20053;-81
2022/06/26 08:34:04;;;;;;;14.45;8.43;;;14.10;99.90;;;;;;5040888;28;20036;-78
2022/06/26 08:36:31;;;;;;;14.90;8.90;;;14.00;99.90;;;;;;5038699;28;20032;-78
2022/06/26 08:39:04;;;;;;;24.40;14.68;;;14.00;99.90;;;;;;5035088;28;20029;-76
2022/06/26 08:41:34;;;;;;;24.60;15.23;;;14.00;99.90;;;;;;5053495;28;20120;-76
2022/06/26 08:44:09;;;;;;;;;;;14.00;99.90;;;;;;5032313;28;20037;-76
2022/06/26 08:46:42;;;;;;;25.17;14.85;;;13.90;99.90;;;;;;5032202;28;19909;-78
2022/06/26 08:49:15;;;;;;;23.95;13.10;;;13.90;99.90;;;;;;5031762;28;20029;-80
2022/06/26 08:51:43;;;;;;;;;;;13.80;99.90;;;;;;5032476;28;20029;-78
2022/06/26 08:54:14;;;;;;;21.17;12.65;;;13.80;99.90;;;;;;5031324;28;20304;-79
2022/06/26 08:56:50;;;;;;;20.00;11.18;;;13.80;99.90;;;;;;5028826;28;20017;-79
2022/06/26 08:59:18;;;;;;;16.38;10.82;;;13.80;99.90;;;;;;5031821;28;20048;-77
2022/06/26 09:01:48;;;;;;;17.40;11.32;;;13.80;99.90;;;;;;5031631;28;20033;-78
2022/06/26 09:04:16;;;;;;;16.85;9.40;;;13.70;99.90;;;;;;5030347;28;20025;-83
2022/06/26 09:06:44;;;;;;;16.27;8.98;;;13.70;99.90;;;;;;5046064;28;20053;-78
2022/06/26 09:09:24;;;;;;;11.73;8.60;;;13.70;99.90;;;;;;5046075;28;20029;-78
2022/06/26 09:11:57;;;;;;;13.40;9.07;;;13.60;99.90;;;;;;5031182;28;20029;-79
2022/06/26 09:14:26;;;;;;;13.20;8.68;;;13.70;99.90;;;;;;5031056;28;20070;-80
2022/06/26 09:16:54;;;;;;;14.90;8.80;;;13.70;99.90;;;;;;5031499;28;20025;-80
2022/06/26 09:19:33;;;;;;;15.15;9.85;;;13.70;99.90;;;;;;5027905;28;20017;-77
2022/06/26 09:22:14;;;;;;;17.92;8.98;;;13.60;99.90;;;;;;5046138;28;20105;-78
2022/06/26 09:24:54;;;;;;;15.05;8.20;;;13.60;99.90;;;;;;5028460;28;20026;-75
2022/06/26 09:27:22;;;;;;;14.45;8.93;;;13.60;99.90;;;;;;5046246;28;20105;-75
2022/06/26 09:29:54;;;;;;;11.13;8.27;;;13.60;99.90;;;;;;5030845;28;20521;-78
2022/06/26 09:32:27;;;;;;;10.55;8.32;;;13.50;99.90;;;;;;5048069;28;20426;-81
2022/06/26 09:34:56;;;;;;;14.10;8.93;;;13.50;99.90;;;;;;5028597;28;20022;-81
2022/06/26 09:37:24;;;;;;;9.05;7.90;;;13.50;99.90;;;;;;5049262;28;20029;-77
2022/06/26 09:40:01;;;;;;;11.57;7.85;;;13.50;99.90;;;;;;5034946;28;20076;-78
2022/06/26 09:42:31;;;;;;;14.88;9.02;;;13.50;99.90;;;;;;5027706;28;20053;-75
2022/06/26 09:45:01;;;;;;;10.30;7.03;;;13.50;99.90;;;;;;5055057;28;20022;-79
2022/06/26 09:47:29;;;;;;;11.05;7.45;;;13.40;99.90;;;;;;5046138;28;20099;-79
2022/06/26 09:49:59;;;;;;;11.02;6.95;;;13.40;99.90;;;;;;5028665;28;20512;-76
2022/06/26 09:52:29;;;;;;;8.10;6.05;;;13.50;99.90;;;;;;5031911;28;20505;-78
2022/06/26 09:54:59;;;;;;;10.20;7.20;;;13.40;99.90;;;;;;5046024;28;20053;-77
2022/06/26 09:57:28;;;;;;;11.60;7.00;;;13.40;99.90;;;;;;5031248;28;20036;-79
2022/06/26 09:59:58;;;;;;;13.43;8.23;;;13.30;99.90;;;;;;5033048;28;20439;-79
2022/06/26 10:08:28;;;;;;;14.82;11.27;;;13.20;99.90;;;;;;5034952;28;20076;-77
2022/06/26 10:10:59;;;;;;;13.15;9.88;;;13.20;99.90;;;;;;5051679;28;20039;-77
2022/06/26 10:13:33;;;;;;;17.67;11.02;;;13.20;99.90;;;;;;5035508;28;20048;-79
2022/06/26 10:16:30;;;;;;;17.35;11.43;;;13.20;99.90;;;;;;5034226;28;20032;-77
2022/06/26 10:19:18;;;;;;;13.30;10.20;;;13.10;99.90;;;;;;5037938;28;20021;-79
2022/06/26 10:21:47;;;;;;;16.25;11.35;;;13.10;99.90;;;;;;5035391;28;20033;-77
2022/06/26 10:24:15;;;;;;;16.58;11.02;;;13.10;99.90;;;;;;5038436;28;20033;-78
2022/06/26 10:27:01;;;;;;;17.58;12.07;;;13.00;99.90;;;;;;5033357;28;20330;-77
2022/06/26 10:29:46;;;;;;;17.83;12.20;;;13.00;99.90;;;;;;5050476;28;20385;-78
2022/06/26 10:32:23;;;;;;;15.77;12.15;;;13.00;99.90;;;;;;5035188;28;20486;-77
2022/06/26 10:34:58;;;;;;;16.02;12.18;;;13.00;99.90;;;;;;5033807;28;20030;-77
2022/06/26 10:37:25;;;;;;;14.43;12.20;;;13.00;99.90;;;;;;5050827;28;20537;-77
2022/06/26 10:40:00;;;;;;;19.13;12.70;;;12.90;99.90;;;;;;5036091;28;20021;-81
2022/06/26 10:45:32;;;;;;;18.20;13.13;;;12.90;99.90;;;;;;5037370;28;20390;-77
2022/06/26 10:48:16;;;;;;;19.30;13.70;;;12.80;99.90;;;;;;5037887;28;20021;-76
2022/06/26 10:51:01;;;;;;;18.80;14.18;;;12.90;99.90;;;;;;5035479;28;20021;-79
2022/06/26 10:53:37;;;;;;;22.63;14.97;;;12.90;99.90;;;;;;5037418;28;20060;-77
2022/06/26 10:56:07;;;;;;;20.40;13.50;;;12.90;99.90;;;;;;5037682;28;20128;-76
2022/06/26 10:58:45;;;;;;;19.27;15.35;;;12.90;99.90;;;;;;5035434;28;20104;-78
2022/06/26 11:01:13;;;;;;;17.33;14.13;;;12.90;99.90;;;;;;5034192;28;20108;-76
2022/06/26 11:03:42;;;;;;;17.67;13.25;;;12.90;99.90;;;;;;5034388;28;20035;-76
2022/06/26 11:06:10;;;;;;;18.42;13.57;;;12.90;99.90;;;;;;5034100;28;20018;-77
2022/06/26 11:08:45;;;;;;;20.00;14.50;;;12.90;99.90;;;;;;5035012;28;20033;-77
2022/06/26 11:11:19;;;;;;;17.20;13.52;;;12.90;99.90;;;;;;5034375;28;20482;-78
2022/06/26 11:13:55;;;;;;;16.83;13.10;;;12.90;99.90;;;;;;5034786;28;20095;-76
2022/06/26 11:16:43;;;;;;;20.20;14.55;;;12.90;99.90;;;;;;5034514;28;20025;-78
2022/06/26 11:20:46;;;;;;;18.45;12.75;;;12.80;99.90;;;;;;5034229;28;20026;-77
2022/06/26 11:22:26;;;;;;;18.38;12.73;;;12.80;99.90;;;;;;5033975;28;20034;-77
2022/06/26 11:24:56;;;;;;;17.33;13.15;;;12.70;99.90;;;;;;5033126;28;20083;-78
2022/06/26 11:27:25;;;;;;;15.68;12.27;;;12.70;99.90;;;;;;5032024;28;20021;-78
2022/06/26 11:29:53;;;;;;;18.77;11.95;;;12.80;99.90;;;;;;5032807;28;20507;-78
2022/06/26 11:32:28;;;;;;;13.95;11.65;;;12.70;99.90;;;;;;5062528;28;20033;-79
2022/06/26 11:34:56;;;;;;;14.88;10.48;;;12.70;99.90;;;;;;5032140;28;20057;-79
2022/06/26 11:37:37;;;;;;;20.30;12.70;;;12.70;99.90;;;;;;5048127;28;20048;-78
2022/06/26 11:40:18;;;;;;;15.60;12.52;;;12.70;99.90;;;;;;5049124;28;20036;-80
2022/06/26 11:42:46;;;;;;;14.85;10.80;;;12.80;99.90;;;;;;5033213;28;20037;-81
2022/06/26 11:45:30;;;;;;;15.15;11.32;;;12.80;99.90;;;;;;5032548;28;20124;-78
2022/06/26 11:48:01;;;;;;;17.02;11.25;;;12.90;99.90;;;;;;5032190;28;20024;-81
2022/06/26 11:50:35;;;;;;;12.68;10.57;;;12.90;99.90;;;;;;5033048;28;20486;-81
2022/06/26 11:53:04;;;;;;;13.80;10.40;;;12.90;99.90;;;;;;5033115;28;20544;-77
2022/06/26 11:55:33;;;;;;;13.75;10.20;;;12.90;99.90;;;;;;5031311;28;20039;-78
2022/06/26 11:58:03;;;;;;;13.25;9.63;;;13.00;99.90;;;;;;5031462;28;20425;-77
2022/06/26 12:00:31;;;;;;;14.30;9.80;;;13.00;99.90;;;;;;5030877;28;20029;-76
2022/06/26 12:03:02;;;;;;;15.02;10.90;;;13.00;99.90;;;;;;5032878;28;20017;-77
2022/06/26 12:05:32;;;;;;;13.57;10.70;;;13.10;99.90;;;;;;5064856;28;20063;-76
2022/06/26 12:08:00;;;;;;;19.30;11.63;;;13.00;99.90;;;;;;5032664;28;20025;-77
2022/06/26 12:10:34;;;;;;;16.92;11.38;;;13.10;99.90;;;;;;5036180;28;20096;-78
2022/06/26 12:13:02;;;;;;;16.58;10.48;;;13.00;99.90;;;;;;5034125;28;20037;-76
2022/06/26 12:15:37;;;;;;;15.63;10.10;;;13.00;99.90;;;;;;5030983;28;20069;-76
2022/06/26 12:18:07;;;;;;;16.70;10.98;;;13.00;99.90;;;;;;5013790;28;20085;-76
2022/06/26 12:20:39;;;;;;;16.27;10.80;;;13.00;99.90;;;;;;5013268;28;20029;-76
2022/06/26 12:23:06;;;;;;;;;;;13.00;99.90;;;;;;5026270;28;20425;-76
2022/06/26 12:25:38;;;;;;;15.15;11.00;;;13.00;99.90;;;;;;5033484;28;19958;-78
2022/06/26 12:28:06;;;;;;;17.45;12.27;;;13.00;99.90;;;;;;5029742;28;20053;-78
2022/06/26 12:30:35;;;;;;;14.57;11.32;;;12.90;99.90;;;;;;5012818;28;20391;-78
2022/06/26 12:33:07;;;;;;;15.32;11.73;;;13.00;99.90;;;;;;5012946;28;20113;-78
2022/06/26 12:35:35;;;;;;;16.38;11.85;;;13.00;99.90;;;;;;5014148;28;20014;-80
2022/06/26 12:38:06;;;;;;;13.60;10.93;;;12.90;99.90;;;;;;5033593;28;20033;-77
2022/06/26 12:40:36;;;;;;;18.83;10.45;;;12.80;99.90;;;;;;5033066;28;20439;-77
2022/06/26 12:43:04;;;;;;;16.17;11.38;;;12.90;99.90;;;;;;5034203;28;20024;-80
2022/06/26 12:45:31;;;;;;;15.27;10.73;;;12.90;99.90;;;;;;5033676;28;20336;-78
2022/06/26 12:47:59;;;;;;;14.52;11.38;;;12.90;99.90;;;;;;5032636;28;20029;-79
2022/06/26 12:50:26;;;;;;;10.82;8.63;;;12.80;99.90;;;;;;5034753;28;20084;-81
2022/06/26 12:52:54;;;;;;;11.40;8.60;;;12.90;99.90;;;;;;5033895;28;20030;-80
2022/06/26 12:55:21;;;;;;;11.48;9.88;;;12.90;99.90;;;;;;5034350;28;20088;-80
2022/06/26 12:57:48;;;;;;;11.68;8.55;;;12.90;99.90;;;;;;5032219;28;20117;-78
2022/06/26 13:00:16;;;;;;;12.45;7.35;;;12.90;99.90;;;;;;5032033;28;20057;-79
2022/06/26 13:02:43;;;;;;;12.82;7.13;;;12.90;99.90;;;;;;5032519;28;20025;-81
2022/06/26 13:05:14;;;;;;;7.53;6.68;;;12.90;99.90;;;;;;5032261;28;20060;-77